Decoded Metar for LRBS (BUCHAREST in ROMANIA) (IATA:BBU) | Meteo·Mobile Aviation Weather
aviador You're here:

LRBS Decoded Metar

BUCHAREST in ROMANIA
Report Time2019-01-20 10:00:00
UTC Time2019-01-20 10:35:20
Flight Rules lifr LIFR
Wind040° at 05 kt
W.Decomp.*RWY 07: 4.1 kt HW 2.8 kt LCW
W.Rank040° ranks 3
Current wind is below 040° avg. (7.1)
Visibility0300 m
Phenomena:Fog
Clouds:N/A
Ceiling100 ft
Temp01°C (ISA -13)
Dew Point01°C (100% RH)
AAT-2.6°C
QNH1018 hPa
Density Alt-1,414 ft
Elevation299 ft
Report Wrong Elevation
Raw Report
LRBS 201000Z 04005KT 0300 R07/0400N R25/0400N FG VV001 01/01 Q1018
R07/19//95 NOSIG=

Extra information for LRBS:More info

Metar Taf Metar & Taf Last 4 Metars F.Rules Stats Wind Profile Meteogram Temp Stats Airport Information Weather charts Add Link Nearby VenuesMetar ALERT Operation Metar Decoded Social comments